sensor_id;sensor_type;location;lat;lon;timestamp;temperature;humidity
18932;DHT22;9598;50.954;3.112;2023-04-01T00:03:20;10.90;99.90
18932;DHT22;9598;50.954;3.112;2023-04-01T00:08:24;10.90;99.90
18932;DHT22;9598;50.954;3.112;2023-04-01T00:13:27;11.00;99.90
18932;DHT22;9598;50.954;3.112;2023-04-01T00:18:29;11.00;99.90
18932;DHT22;9598;50.954;3.112;2023-04-01T00:23:33;10.90;99.90
18932;DHT22;9598;50.954;3.112;2023-04-01T00:28:35;11.00;99.90
18932;DHT22;9598;50.954;3.112;2023-04-01T00:33:38;10.90;99.90
18932;DHT22;9598;50.954;3.112;2023-04-01T00:38:43;10.90;99.90
18932;DHT22;9598;50.954;3.112;2023-04-01T00:43:47;11.00;99.90
18932;DHT22;9598;50.954;3.112;2023-04-01T00:48:51;10.90;99.90
18932;DHT22;9598;50.954;3.112;2023-04-01T00:53:58;10.80;99.90
18932;DHT22;9598;50.954;3.112;2023-04-01T00:59:06;10.80;99.90
18932;DHT22;9598;50.954;3.112;2023-04-01T01:04:22;10.80;99.90
18932;DHT22;9598;50.954;3.112;2023-04-01T01:09:37;10.80;99.90
18932;DHT22;9598;50.954;3.112;2023-04-01T01:14:52;10.80;99.90
18932;DHT22;9598;50.954;3.112;2023-04-01T01:25:45;10.90;99.90
18932;DHT22;9598;50.954;3.112;2023-04-01T01:30:54;10.90;99.90
18932;DHT22;9598;50.954;3.112;2023-04-01T01:36:02;10.90;99.90
18932;DHT22;9598;50.954;3.112;2023-04-01T01:41:07;10.90;99.90
18932;DHT22;9598;50.954;3.112;2023-04-01T01:46:13;10.80;99.90
18932;DHT22;9598;50.954;3.112;2023-04-01T01:51:18;10.80;99.90
18932;DHT22;9598;50.954;3.112;2023-04-01T01:56:23;10.80;99.90
18932;DHT22;9598;50.954;3.112;2023-04-01T02:01:31;10.80;99.90
18932;DHT22;9598;50.954;3.112;2023-04-01T02:06:49;10.80;99.90
18932;DHT22;9598;50.954;3.112;2023-04-01T02:11:57;10.80;99.90
18932;DHT22;9598;50.954;3.112;2023-04-01T02:17:02;10.80;99.90
18932;DHT22;9598;50.954;3.112;2023-04-01T02:22:11;10.80;99.90
18932;DHT22;9598;50.954;3.112;2023-04-01T02:27:15;10.80;99.90
18932;DHT22;9598;50.954;3.112;2023-04-01T02:32:19;10.80;99.90
18932;DHT22;9598;50.954;3.112;2023-04-01T02:37:23;10.80;99.90
18932;DHT22;9598;50.954;3.112;2023-04-01T02:42:25;10.80;99.90
18932;DHT22;9598;50.954;3.112;2023-04-01T02:47:28;10.80;99.90
18932;DHT22;9598;50.954;3.112;2023-04-01T02:52:31;10.70;99.90
18932;DHT22;9598;50.954;3.112;2023-04-01T02:57:35;10.70;99.90
18932;DHT22;9598;50.954;3.112;2023-04-01T03:02:38;10.80;99.90
18932;DHT22;9598;50.954;3.112;2023-04-01T03:07:41;10.70;99.90
18932;DHT22;9598;50.954;3.112;2023-04-01T03:12:44;10.70;99.90
18932;DHT22;9598;50.954;3.112;2023-04-01T03:17:46;10.70;99.90
18932;DHT22;9598;50.954;3.112;2023-04-01T03:22:50;10.70;99.90
18932;DHT22;9598;50.954;3.112;2023-04-01T03:27:52;10.70;99.90
18932;DHT22;9598;50.954;3.112;2023-04-01T03:32:55;10.60;99.90
18932;DHT22;9598;50.954;3.112;2023-04-01T03:37:59;10.60;99.90
18932;DHT22;9598;50.954;3.112;2023-04-01T03:43:01;10.60;99.90
18932;DHT22;9598;50.954;3.112;2023-04-01T03:48:04;10.60;99.90
18932;DHT22;9598;50.954;3.112;2023-04-01T03:53:08;10.60;99.90
18932;DHT22;9598;50.954;3.112;2023-04-01T03:58:15;10.60;99.90
18932;DHT22;9598;50.954;3.112;2023-04-01T04:03:18;10.60;99.90
18932;DHT22;9598;50.954;3.112;2023-04-01T04:08:22;10.50;99.90
18932;DHT22;9598;50.954;3.112;2023-04-01T04:13:25;10.50;99.90
18932;DHT22;9598;50.954;3.112;2023-04-01T04:18:33;10.40;99.90
18932;DHT22;9598;50.954;3.112;2023-04-01T04:23:37;10.50;99.90
18932;DHT22;9598;50.954;3.112;2023-04-01T04:28:40;10.50;99.90
18932;DHT22;9598;50.954;3.112;2023-04-01T04:33:42;10.50;99.90
18932;DHT22;9598;50.954;3.112;2023-04-01T04:38:46;10.40;99.90
18932;DHT22;9598;50.954;3.112;2023-04-01T04:43:50;10.40;99.90
18932;DHT22;9598;50.954;3.112;2023-04-01T04:48:52;10.50;99.90
18932;DHT22;9598;50.954;3.112;2023-04-01T04:53:56;10.50;99.90
18932;DHT22;9598;50.954;3.112;2023-04-01T04:59:10;10.50;99.90
18932;DHT22;9598;50.954;3.112;2023-04-01T05:04:22;10.50;99.90
18932;DHT22;9598;50.954;3.112;2023-04-01T05:09:26;10.50;99.90
18932;DHT22;9598;50.954;3.112;2023-04-01T05:14:28;10.40;99.90
18932;DHT22;9598;50.954;3.112;2023-04-01T05:19:39;10.50;99.90
18932;DHT22;9598;50.954;3.112;2023-04-01T05:24:43;10.50;99.90
18932;DHT22;9598;50.954;3.112;2023-04-01T05:29:46;10.40;99.90
18932;DHT22;9598;50.954;3.112;2023-04-01T05:35:07;10.40;99.90
18932;DHT22;9598;50.954;3.112;2023-04-01T05:40:11;10.40;99.90
18932;DHT22;9598;50.954;3.112;2023-04-01T05:45:14;10.40;99.90
18932;DHT22;9598;50.954;3.112;2023-04-01T05:50:34;10.40;99.90
18932;DHT22;9598;50.954;3.112;2023-04-01T05:55:39;10.40;99.90
18932;DHT22;9598;50.954;3.112;2023-04-01T06:00:42;10.30;99.90
18932;DHT22;9598;50.954;3.112;2023-04-01T06:05:44;10.30;99.90
18932;DHT22;9598;50.954;3.112;2023-04-01T06:10:55;10.40;99.90
18932;DHT22;9598;50.954;3.112;2023-04-01T06:16:05;10.30;99.90
18932;DHT22;9598;50.954;3.112;2023-04-01T06:26:48;10.30;99.90
18932;DHT22;9598;50.954;3.112;2023-04-01T06:37:46;10.30;99.90
18932;DHT22;9598;50.954;3.112;2023-04-01T06:43:05;10.30;99.90
18932;DHT22;9598;50.954;3.112;2023-04-01T06:48:39;10.30;99.90
18932;DHT22;9598;50.954;3.112;2023-04-01T06:54:06;10.30;99.90
18932;DHT22;9598;50.954;3.112;2023-04-01T06:59:33;10.30;99.90
18932;DHT22;9598;50.954;3.112;2023-04-01T07:04:39;10.30;99.90
18932;DHT22;9598;50.954;3.112;2023-04-01T07:09:49;10.20;99.90
18932;DHT22;9598;50.954;3.112;2023-04-01T07:15:22;10.20;99.90
18932;DHT22;9598;50.954;3.112;2023-04-01T07:20:29;10.20;99.90
18932;DHT22;9598;50.954;3.112;2023-04-01T07:25:35;10.20;99.90
18932;DHT22;9598;50.954;3.112;2023-04-01T07:31:07;10.20;99.90
18932;DHT22;9598;50.954;3.112;2023-04-01T07:36:17;10.30;99.90
18932;DHT22;9598;50.954;3.112;2023-04-01T07:41:27;10.30;99.90
18932;DHT22;9598;50.954;3.112;2023-04-01T07:46:49;10.30;99.90
18932;DHT22;9598;50.954;3.112;2023-04-01T07:51:59;10.30;99.90
18932;DHT22;9598;50.954;3.112;2023-04-01T07:57:07;10.30;99.90
18932;DHT22;9598;50.954;3.112;2023-04-01T08:02:29;10.30;99.90
18932;DHT22;9598;50.954;3.112;2023-04-01T08:07:43;10.30;99.90
18932;DHT22;9598;50.954;3.112;2023-04-01T08:13:13;10.40;99.90
18932;DHT22;9598;50.954;3.112;2023-04-01T08:18:45;10.40;99.90
18932;DHT22;9598;50.954;3.112;2023-04-01T08:23:51;10.40;99.90
18932;DHT22;9598;50.954;3.112;2023-04-01T08:28:56;10.40;99.90
18932;DHT22;9598;50.954;3.112;2023-04-01T08:34:05;10.40;99.90
18932;DHT22;9598;50.954;3.112;2023-04-01T08:39:15;10.30;99.90
18932;DHT22;9598;50.954;3.112;2023-04-01T08:44:29;10.40;99.90
18932;DHT22;9598;50.954;3.112;2023-04-01T08:55:46;10.30;99.90
18932;DHT22;9598;50.954;3.112;2023-04-01T09:00:54;10.40;99.90
18932;DHT22;9598;50.954;3.112;2023-04-01T09:06:23;10.40;99.90
18932;DHT22;9598;50.954;3.112;2023-04-01T09:11:33;10.50;99.90
18932;DHT22;9598;50.954;3.112;2023-04-01T09:17:07;10.50;99.90
18932;DHT22;9598;50.954;3.112;2023-04-01T09:22:25;10.60;99.90
18932;DHT22;9598;50.954;3.112;2023-04-01T09:27:34;10.70;99.90
18932;DHT22;9598;50.954;3.112;2023-04-01T09:33:01;10.70;99.90
18932;DHT22;9598;50.954;3.112;2023-04-01T09:38:20;10.70;99.90
18932;DHT22;9598;50.954;3.112;2023-04-01T09:43:29;10.70;99.90
18932;DHT22;9598;50.954;3.112;2023-04-01T09:48:46;10.70;99.90
18932;DHT22;9598;50.954;3.112;2023-04-01T09:54:05;10.60;99.90
18932;DHT22;9598;50.954;3.112;2023-04-01T09:59:43;10.60;99.90
18932;DHT22;9598;50.954;3.112;2023-04-01T10:05:35;10.60;99.90
18932;DHT22;9598;50.954;3.112;2023-04-01T10:11:12;10.60;99.90
18932;DHT22;9598;50.954;3.112;2023-04-01T10:16:42;10.60;99.90
18932;DHT22;9598;50.954;3.112;2023-04-01T10:27:39;10.70;99.90
18932;DHT22;9598;50.954;3.112;2023-04-01T10:33:39;10.70;99.90
18932;DHT22;9598;50.954;3.112;2023-04-01T10:50:24;10.80;99.90
18932;DHT22;9598;50.954;3.112;2023-04-01T10:55:44;10.80;99.90
18932;DHT22;9598;50.954;3.112;2023-04-01T11:08:05;10.80;99.90
18932;DHT22;9598;50.954;3.112;2023-04-01T11:19:28;10.80;99.90
18932;DHT22;9598;50.954;3.112;2023-04-01T11:30:45;10.80;99.90
18932;DHT22;9598;50.954;3.112;2023-04-01T11:36:21;10.80;99.90
18932;DHT22;9598;50.954;3.112;2023-04-01T11:41:35;10.90;99.90
18932;DHT22;9598;50.954;3.112;2023-04-01T11:47:19;10.90;99.90
18932;DHT22;9598;50.954;3.112;2023-04-01T11:52:40;10.90;99.90
18932;DHT22;9598;50.954;3.112;2023-04-01T11:58:07;11.00;99.90
18932;DHT22;9598;50.954;3.112;2023-04-01T12:03:35;11.00;99.90
18932;DHT22;9598;50.954;3.112;2023-04-01T12:08:46;11.00;99.90
18932;DHT22;9598;50.954;3.112;2023-04-01T12:14:02;10.90;99.90
18932;DHT22;9598;50.954;3.112;2023-04-01T12:19:11;11.00;99.90
18932;DHT22;9598;50.954;3.112;2023-04-01T12:24:40;11.00;99.90
18932;DHT22;9598;50.954;3.112;2023-04-01T12:35:26;11.10;99.90
18932;DHT22;9598;50.954;3.112;2023-04-01T12:40:45;11.10;99.90
18932;DHT22;9598;50.954;3.112;2023-04-01T12:45:54;11.10;99.90
18932;DHT22;9598;50.954;3.112;2023-04-01T12:51:34;11.00;99.90
18932;DHT22;9598;50.954;3.112;2023-04-01T12:56:44;11.00;99.90
18932;DHT22;9598;50.954;3.112;2023-04-01T13:02:01;11.00;99.90
18932;DHT22;9598;50.954;3.112;2023-04-01T13:12:54;10.90;99.90
18932;DHT22;9598;50.954;3.112;2023-04-01T13:18:20;10.90;99.90
18932;DHT22;9598;50.954;3.112;2023-04-01T13:23:34;10.90;99.90
18932;DHT22;9598;50.954;3.112;2023-04-01T13:28:40;10.90;99.90
18932;DHT22;9598;50.954;3.112;2023-04-01T13:33:53;10.90;99.90
18932;DHT22;9598;50.954;3.112;2023-04-01T13:39:10;10.80;99.90
18932;DHT22;9598;50.954;3.112;2023-04-01T13:44:19;10.80;99.90
18932;DHT22;9598;50.954;3.112;2023-04-01T13:49:43;10.70;99.90
18932;DHT22;9598;50.954;3.112;2023-04-01T13:55:19;10.60;99.90
18932;DHT22;9598;50.954;3.112;2023-04-01T14:00:35;10.60;99.90
18932;DHT22;9598;50.954;3.112;2023-04-01T14:05:56;10.70;99.90
18932;DHT22;9598;50.954;3.112;2023-04-01T14:11:10;10.70;99.90
18932;DHT22;9598;50.954;3.112;2023-04-01T14:16:31;10.70;99.90
18932;DHT22;9598;50.954;3.112;2023-04-01T14:21:41;10.60;99.90
18932;DHT22;9598;50.954;3.112;2023-04-01T14:27:01;10.60;99.90
18932;DHT22;9598;50.954;3.112;2023-04-01T14:32:14;10.60;99.90
18932;DHT22;9598;50.954;3.112;2023-04-01T14:37:36;10.60;99.90
18932;DHT22;9598;50.954;3.112;2023-04-01T14:42:55;10.60;99.90
18932;DHT22;9598;50.954;3.112;2023-04-01T14:48:07;10.60;99.90
18932;DHT22;9598;50.954;3.112;2023-04-01T14:53:29;10.50;99.90
18932;DHT22;9598;50.954;3.112;2023-04-01T14:58:43;10.50;99.90
18932;DHT22;9598;50.954;3.112;2023-04-01T15:03:50;10.50;99.90
18932;DHT22;9598;50.954;3.112;2023-04-01T15:09:03;10.50;99.90
18932;DHT22;9598;50.954;3.112;2023-04-01T15:14:18;10.40;99.90
18932;DHT22;9598;50.954;3.112;2023-04-01T15:19:30;10.40;99.90
18932;DHT22;9598;50.954;3.112;2023-04-01T15:24:43;10.40;99.90
18932;DHT22;9598;50.954;3.112;2023-04-01T15:30:14;10.40;99.90
18932;DHT22;9598;50.954;3.112;2023-04-01T15:35:27;10.30;99.90
18932;DHT22;9598;50.954;3.112;2023-04-01T15:40:41;10.30;99.90
18932;DHT22;9598;50.954;3.112;2023-04-01T15:45:52;10.30;99.90
18932;DHT22;9598;50.954;3.112;2023-04-01T15:51:20;10.30;99.90
18932;DHT22;9598;50.954;3.112;2023-04-01T15:56:42;10.20;99.90
18932;DHT22;9598;50.954;3.112;2023-04-01T16:01:51;10.20;99.90
18932;DHT22;9598;50.954;3.112;2023-04-01T16:07:09;10.20;99.90
18932;DHT22;9598;50.954;3.112;2023-04-01T16:12:18;10.10;99.90
18932;DHT22;9598;50.954;3.112;2023-04-01T16:17:38;10.20;99.90
18932;DHT22;9598;50.954;3.112;2023-04-01T16:22:51;10.10;99.90
18932;DHT22;9598;50.954;3.112;2023-04-01T16:28:09;10.10;99.90
18932;DHT22;9598;50.954;3.112;2023-04-01T16:33:20;10.20;99.90
18932;DHT22;9598;50.954;3.112;2023-04-01T16:38:26;10.20;99.90
18932;DHT22;9598;50.954;3.112;2023-04-01T16:43:41;10.10;99.90
18932;DHT22;9598;50.954;3.112;2023-04-01T16:48:57;10.10;99.90
18932;DHT22;9598;50.954;3.112;2023-04-01T16:54:05;10.10;99.90
18932;DHT22;9598;50.954;3.112;2023-04-01T16:59:16;10.10;99.90
18932;DHT22;9598;50.954;3.112;2023-04-01T17:04:27;10.00;99.90
18932;DHT22;9598;50.954;3.112;2023-04-01T17:09:43;10.00;99.90
18932;DHT22;9598;50.954;3.112;2023-04-01T17:14:57;10.00;99.90
18932;DHT22;9598;50.954;3.112;2023-04-01T17:25:52;10.00;99.90
18932;DHT22;9598;50.954;3.112;2023-04-01T17:31:04;10.00;99.90
18932;DHT22;9598;50.954;3.112;2023-04-01T17:36:16;10.00;99.90
18932;DHT22;9598;50.954;3.112;2023-04-01T17:41:30;10.00;99.90
18932;DHT22;9598;50.954;3.112;2023-04-01T17:46:50;10.00;99.90
18932;DHT22;9598;50.954;3.112;2023-04-01T17:52:02;10.00;99.90
18932;DHT22;9598;50.954;3.112;2023-04-01T17:57:27;10.00;99.90
18932;DHT22;9598;50.954;3.112;2023-04-01T18:02:40;10.00;99.90
18932;DHT22;9598;50.954;3.112;2023-04-01T18:18:56;10.00;99.90
18932;DHT22;9598;50.954;3.112;2023-04-01T18:24:06;10.00;99.90
18932;DHT22;9598;50.954;3.112;2023-04-01T18:29:23;10.00;99.90
18932;DHT22;9598;50.954;3.112;2023-04-01T18:34:42;10.00;99.90
18932;DHT22;9598;50.954;3.112;2023-04-01T18:39:49;10.00;99.90
18932;DHT22;9598;50.954;3.112;2023-04-01T18:44:57;10.00;99.90
18932;DHT22;9598;50.954;3.112;2023-04-01T18:50:13;10.00;99.90
18932;DHT22;9598;50.954;3.112;2023-04-01T18:55:29;10.00;99.90
18932;DHT22;9598;50.954;3.112;2023-04-01T19:00:37;10.00;99.90
18932;DHT22;9598;50.954;3.112;2023-04-01T19:05:44;10.00;99.90
18932;DHT22;9598;50.954;3.112;2023-04-01T19:10:51;9.90;99.90
18932;DHT22;9598;50.954;3.112;2023-04-01T19:16:04;9.90;99.90
18932;DHT22;9598;50.954;3.112;2023-04-01T19:21:14;9.90;99.90
18932;DHT22;9598;50.954;3.112;2023-04-01T19:26:23;9.90;99.90
18932;DHT22;9598;50.954;3.112;2023-04-01T19:31:36;9.90;99.90
18932;DHT22;9598;50.954;3.112;2023-04-01T19:36:47;9.80;99.90
18932;DHT22;9598;50.954;3.112;2023-04-01T19:41:56;9.80;99.90
18932;DHT22;9598;50.954;3.112;2023-04-01T19:47:05;9.80;99.90
18932;DHT22;9598;50.954;3.112;2023-04-01T19:52:16;9.80;99.90
18932;DHT22;9598;50.954;3.112;2023-04-01T19:57:25;9.80;99.90
18932;DHT22;9598;50.954;3.112;2023-04-01T20:02:55;9.80;99.90
18932;DHT22;9598;50.954;3.112;2023-04-01T20:08:07;9.80;99.90
18932;DHT22;9598;50.954;3.112;2023-04-01T20:13:18;9.80;99.90
18932;DHT22;9598;50.954;3.112;2023-04-01T20:18:26;9.80;99.90
18932;DHT22;9598;50.954;3.112;2023-04-01T20:23:41;9.80;99.90
18932;DHT22;9598;50.954;3.112;2023-04-01T20:28:48;9.70;
18932;DHT22;9598;50.954;3.112;2023-04-01T20:34:16;9.70;99.90
18932;DHT22;9598;50.954;3.112;2023-04-01T20:39:46;9.70;99.90
18932;DHT22;9598;50.954;3.112;2023-04-01T20:45:01;9.60;99.90
18932;DHT22;9598;50.954;3.112;2023-04-01T20:50:18;9.60;99.90
18932;DHT22;9598;50.954;3.112;2023-04-01T21:01:13;9.60;99.90
18932;DHT22;9598;50.954;3.112;2023-04-01T21:06:39;9.50;99.90
18932;DHT22;9598;50.954;3.112;2023-04-01T21:11:49;9.50;99.90
18932;DHT22;9598;50.954;3.112;2023-04-01T21:17:03;9.50;99.90
18932;DHT22;9598;50.954;3.112;2023-04-01T21:22:33;9.50;99.90
18932;DHT22;9598;50.954;3.112;2023-04-01T21:27:47;9.50;99.90
18932;DHT22;9598;50.954;3.112;2023-04-01T21:33:14;9.50;99.90
18932;DHT22;9598;50.954;3.112;2023-04-01T21:38:43;9.50;99.90
18932;DHT22;9598;50.954;3.112;2023-04-01T21:44:15;9.50;99.90
18932;DHT22;9598;50.954;3.112;2023-04-01T21:49:49;9.40;99.90
18932;DHT22;9598;50.954;3.112;2023-04-01T21:55:28;9.50;99.90
18932;DHT22;9598;50.954;3.112;2023-04-01T22:00:37;9.40;99.90
18932;DHT22;9598;50.954;3.112;2023-04-01T22:05:44;9.40;99.90
18932;DHT22;9598;50.954;3.112;2023-04-01T22:10:53;9.40;99.90
18932;DHT22;9598;50.954;3.112;2023-04-01T22:16:06;9.30;99.90
18932;DHT22;9598;50.954;3.112;2023-04-01T22:21:17;9.30;99.90
18932;DHT22;9598;50.954;3.112;2023-04-01T22:26:28;9.30;99.90
18932;DHT22;9598;50.954;3.112;2023-04-01T22:31:40;9.30;99.90
18932;DHT22;9598;50.954;3.112;2023-04-01T22:36:54;9.30;99.90
18932;DHT22;9598;50.954;3.112;2023-04-01T22:42:06;9.30;99.90
18932;DHT22;9598;50.954;3.112;2023-04-01T22:47:16;9.20;99.90
18932;DHT22;9598;50.954;3.112;2023-04-01T22:52:28;9.20;99.90
18932;DHT22;9598;50.954;3.112;2023-04-01T22:57:39;9.20;99.90
18932;DHT22;9598;50.954;3.112;2023-04-01T23:02:45;9.10;99.90
18932;DHT22;9598;50.954;3.112;2023-04-01T23:07:54;9.10;99.90
18932;DHT22;9598;50.954;3.112;2023-04-01T23:13:00;9.20;99.90
18932;DHT22;9598;50.954;3.112;2023-04-01T23:18:11;9.20;99.90
18932;DHT22;9598;50.954;3.112;2023-04-01T23:23:26;9.20;99.90
18932;DHT22;9598;50.954;3.112;2023-04-01T23:28:42;9.20;99.90
18932;DHT22;9598;50.954;3.112;2023-04-01T23:33:45;9.10;99.90
18932;DHT22;9598;50.954;3.112;2023-04-01T23:38:49;9.10;99.90
18932;DHT22;9598;50.954;3.112;2023-04-01T23:43:55;9.10;99.90
18932;DHT22;9598;50.954;3.112;2023-04-01T23:48:58;9.10;99.90
18932;DHT22;9598;50.954;3.112;2023-04-01T23:54:04;9.10;99.90
18932;DHT22;9598;50.954;3.112;2023-04-01T23:59:17;9.10;99.90
